Time;durP1;ratioP1;P1;durP2;ratioP2;P2;SDS_P1;SDS_P2;PMS_P1;PMS_P2;Temp;Humidity;BMP_temperature;BMP_pressure;BME280_temperature;BME280_humidity;BME280_pressure;Samples;Min_cycle;Max_cycle;Signal;HPM_P1;HPM_P2
2022/06/09 00:00:23;;;;;;;16.02;6.88;;;;;;;15.30;66.24;99396.13;5012197;28;20026;-63
2022/06/09 00:02:52;;;;;;;15.15;6.40;;;;;;;15.30;66.31;99410.97;5013500;28;20034;-63
2022/06/09 00:05:18;;;;;;;14.60;6.72;;;;;;;15.30;65.87;99403.97;5012840;28;20050;-64
2022/06/09 00:07:46;;;;;;;10.60;5.53;;;;;;;15.30;65.87;99401.34;5013246;28;20026;-64
2022/06/09 00:10:23;;;;;;;15.27;6.95;;;;;;;14.94;66.32;99349.94;5011818;28;20029;-64
2022/06/09 00:12:48;;;;;;;18.15;6.63;;;;;;;15.24;66.38;99401.66;5013728;28;20018;-63
2022/06/09 00:15:14;;;;;;;13.60;5.70;;;;;;;15.24;65.76;99400.81;5013333;28;20510;-63
2022/06/09 00:17:42;;;;;;;14.23;5.63;;;;;;;14.90;65.51;99345.78;5013068;28;20033;-63
2022/06/09 00:20:08;;;;;;;17.40;6.68;;;;;;;15.13;66.35;99406.50;5012898;28;20026;-63
2022/06/09 00:22:34;;;;;;;12.23;6.53;;;;;;;15.01;67.04;99402.69;5012868;28;20046;-63
2022/06/09 00:25:00;;;;;;;13.13;6.18;;;;;;;15.01;66.98;99398.31;5012959;28;20036;-63
2022/06/09 00:27:25;;;;;;;17.73;6.53;;;;;;;15.02;67.40;99397.41;5012871;28;20045;-62
2022/06/09 00:29:51;;;;;;;12.25;6.38;;;;;;;15.00;66.57;99398.38;5011796;28;20383;-63
2022/06/09 00:32:17;;;;;;;15.20;5.70;;;;;;;14.93;66.39;99392.56;5012955;28;20395;-63
2022/06/09 00:34:42;;;;;;;11.15;5.70;;;;;;;14.81;67.45;99391.38;5012498;28;20173;-63
2022/06/09 00:37:08;;;;;;;10.30;5.45;;;;;;;14.80;66.66;99389.66;5012784;28;20773;-61
2022/06/09 00:39:33;;;;;;;12.35;6.25;;;;;;;14.78;67.14;99375.03;5012461;28;20038;-62
2022/06/09 00:41:59;;;;;;;14.43;6.18;;;;;;;14.86;67.08;99390.31;5012371;28;20025;-63
2022/06/09 00:44:28;;;;;;;11.27;6.00;;;;;;;14.49;67.45;99340.59;5012614;28;20483;-63
2022/06/09 00:46:58;;;;;;;13.38;5.63;;;;;;;14.50;67.47;99334.47;5012206;28;20120;-62
2022/06/09 00:49:45;;;;;;;11.32;5.50;;;;;;;14.60;67.71;99353.16;5012719;28;20022;-64
2022/06/09 00:52:17;;;;;;;8.85;5.68;;;;;;;14.79;67.84;99384.50;5012680;28;20022;-63
2022/06/09 00:54:48;;;;;;;11.23;6.05;;;;;;;14.82;67.22;99400.03;5012019;28;20407;-62
2022/06/09 00:57:19;;;;;;;11.40;6.03;;;;;;;14.82;67.50;99394.81;5010354;28;20491;-62
2022/06/09 00:59:51;;;;;;;8.10;5.68;;;;;;;14.43;67.38;99336.50;5012440;28;20487;-64
2022/06/09 01:02:19;;;;;;;15.52;6.13;;;;;;;14.52;67.28;99343.06;4998755;28;20038;-64
2022/06/09 01:04:48;;;;;;;13.10;5.95;;;;;;;14.67;67.28;99375.47;5004080;28;20045;-64
2022/06/09 01:07:18;;;;;;;13.40;5.47;;;;;;;14.65;68.02;99398.13;5012426;28;20076;-64
2022/06/09 01:09:44;;;;;;;13.93;5.78;;;;;;;14.76;68.67;99390.69;5012513;28;20026;-64
2022/06/09 01:12:24;;;;;;;11.00;6.32;;;;;;;14.73;68.72;99390.00;5012265;28;20061;-64
2022/06/09 01:14:51;;;;;;;10.18;5.65;;;;;;;14.60;68.53;99384.44;4992727;28;20041;-63
2022/06/09 01:17:33;;;;;;;12.35;5.72;;;;;;;14.58;68.99;99386.25;5007519;28;20033;-62
2022/06/09 01:20:30;;;;;;;10.82;5.22;;;;;;;14.49;68.58;99361.44;5011999;28;20364;-64
2022/06/09 01:23:21;;;;;;;10.32;6.22;;;;;;;14.59;68.46;99377.53;5012136;28;20022;-63
2022/06/09 01:25:52;;;;;;;9.88;5.85;;;;;;;14.61;68.34;99386.97;5012167;28;20054;-63
2022/06/09 01:28:42;;;;;;;11.48;6.05;;;;;;;14.57;68.60;99381.97;5012111;28;20030;-63
2022/06/09 01:31:44;;;;;;;8.77;5.88;;;;;;;14.28;68.68;99331.94;5012081;28;20419;-63
2022/06/09 01:34:37;;;;;;;10.52;5.63;;;;;;;14.55;69.49;99386.38;4942740;28;20146;-63
2022/06/09 01:37:06;;;;;;;11.75;6.25;;;;;;;14.51;68.35;99385.69;5012146;28;20494;-63
2022/06/09 01:39:44;;;;;;;12.32;5.97;;;;;;;14.54;68.41;99380.34;5011670;28;20178;-63
2022/06/09 01:42:23;;;;;;;13.68;5.95;;;;;;;14.57;69.41;99385.41;5012230;28;20049;-63
2022/06/09 01:44:51;;;;;;;12.55;6.18;;;;;;;14.60;69.17;99381.84;5012073;28;20033;-63
2022/06/09 01:47:20;;;;;;;16.80;6.35;;;;;;;14.44;69.54;99347.78;5011574;28;20030;-63
2022/06/09 01:49:48;;;;;;;10.57;6.28;;;;;;;14.25;68.86;99329.47;5011990;28;20018;-63
2022/06/09 01:52:13;;;;;;;13.52;6.25;;;;;;;14.58;69.11;99378.44;5010236;28;20022;-63
2022/06/09 01:54:41;;;;;;;11.32;6.22;;;;;;;14.49;70.45;99369.25;5011924;28;20033;-64
2022/06/09 01:57:21;;;;;;;11.52;6.50;;;;;;;14.40;70.04;99346.22;5011772;28;20029;-63
2022/06/09 02:00:18;;;;;;;13.27;6.20;;;;;;;14.66;70.69;99379.84;5026970;28;20026;-64
2022/06/09 02:02:51;;;;;;;12.40;5.90;;;;;;;14.37;70.03;99317.69;4999903;28;20511;-63
2022/06/09 02:05:30;;;;;;;12.13;6.30;;;;;;;14.67;69.37;99384.13;5011571;28;20046;-64
2022/06/09 02:08:01;;;;;;;9.90;5.63;;;;;;;14.64;70.61;99367.78;5011738;28;20030;-64
2022/06/09 02:10:40;;;;;;;11.17;6.27;;;;;;;14.43;70.36;99320.84;5011917;28;20026;-64
2022/06/09 02:13:10;;;;;;;15.38;6.43;;;;;;;14.56;70.08;99336.81;5011803;28;20026;-63
2022/06/09 02:15:51;;;;;;;15.02;6.97;;;;;;;14.79;69.76;99388.00;5011449;28;20038;-63
2022/06/09 02:18:21;;;;;;;8.15;5.95;;;;;;;14.57;70.65;99322.88;5011833;28;20387;-63
2022/06/09 02:21:04;;;;;;;14.57;7.45;;;;;;;14.56;69.94;99320.34;5011328;28;20030;-63
2022/06/09 02:23:30;;;;;;;11.48;6.57;;;;;;;14.90;70.71;99374.47;5011427;28;20045;-63
2022/06/09 02:25:56;;;;;;;15.90;7.55;;;;;;;14.96;69.72;99371.59;5011695;28;20029;-63
2022/06/09 02:28:22;;;;;;;12.40;7.32;;;;;;;15.03;69.76;99374.75;5011593;28;20360;-62
2022/06/09 02:30:48;;;;;;;11.55;7.30;;;;;;;15.10;69.92;99376.19;5014721;28;20029;-62
2022/06/09 02:33:13;;;;;;;11.50;7.43;;;;;;;15.12;70.13;99378.72;5013572;28;20440;-62
2022/06/09 02:35:41;;;;;;;11.80;6.82;;;;;;;15.22;69.73;99369.56;5014588;28;20038;-62
2022/06/09 02:38:07;;;;;;;10.52;7.20;;;;;;;15.29;70.19;99378.81;5011923;28;20033;-62
2022/06/09 02:40:33;;;;;;;10.98;7.43;;;;;;;15.31;69.77;99382.19;5014541;28;20053;-62
2022/06/09 02:42:59;;;;;;;13.05;7.18;;;;;;;15.38;68.92;99376.66;5014980;28;20460;-64
2022/06/09 02:45:25;;;;;;;12.95;6.88;;;;;;;15.51;68.89;99383.03;5014827;28;20022;-62
2022/06/09 02:47:50;;;;;;;15.35;7.22;;;;;;;15.54;68.75;99386.31;4997127;28;20121;-62
2022/06/09 02:50:16;;;;;;;9.57;6.80;;;;;;;15.65;68.54;99385.84;5014661;28;20058;-62
2022/06/09 02:52:42;;;;;;;13.23;6.85;;;;;;;15.69;68.33;99383.91;5014667;28;20029;-62
2022/06/09 02:55:10;;;;;;;12.27;6.97;;;;;;;15.83;67.07;99409.41;5004274;28;20033;-62
2022/06/09 02:57:37;;;;;;;14.65;6.85;;;;;;;15.85;67.13;99394.53;5014561;28;20017;-63
2022/06/09 03:00:05;;;;;;;10.98;7.15;;;;;;;15.64;66.64;99341.53;5014729;28;20033;-63
2022/06/09 03:02:32;;;;;;;15.70;8.88;;;;;;;16.00;66.89;99396.41;5014226;28;20025;-63
2022/06/09 03:04:58;;;;;;;13.57;7.05;;;;;;;16.09;67.47;99413.38;5014069;28;20127;-62
2022/06/09 03:07:24;;;;;;;14.40;7.22;;;;;;;16.15;67.95;99388.72;5014359;28;20489;-62
2022/06/09 03:09:51;;;;;;;15.52;8.07;;;;;;;16.19;66.79;99396.34;5014254;28;20022;-62
2022/06/09 03:12:17;;;;;;;14.65;7.35;;;;;;;16.27;66.35;99387.28;5012900;28;20172;-62
2022/06/09 03:14:43;;;;;;;16.42;8.32;;;;;;;16.39;65.27;99387.50;5013847;28;20430;-63
2022/06/09 03:17:09;;;;;;;15.00;7.90;;;;;;;16.49;65.18;99384.41;5013657;28;20018;-62
2022/06/09 03:19:35;;;;;;;16.25;8.07;;;;;;;16.60;65.75;99379.47;5014066;28;20030;-62
2022/06/09 03:22:01;;;;;;;17.67;8.35;;;;;;;16.70;64.93;99383.34;5013520;28;20022;-62
2022/06/09 03:24:27;;;;;;;18.38;7.80;;;;;;;16.84;64.73;99387.00;5013876;28;20076;-62
2022/06/09 03:26:52;;;;;;;21.80;10.80;;;;;;;16.95;61.70;99381.22;5013540;28;20049;-62
2022/06/09 03:29:19;;;;;;;21.35;9.43;;;;;;;17.14;63.27;99381.09;5012503;28;20029;-62
2022/06/09 03:31:46;;;;;;;32.20;11.15;;;;;;;17.34;63.01;99385.25;5011910;28;20386;-62
2022/06/09 03:34:12;;;;;;;26.95;12.52;;;;;;;17.48;59.25;99381.88;5013545;28;20030;-62
2022/06/09 03:36:39;;;;;;;28.45;13.07;;;;;;;17.73;56.83;99381.38;5013555;28;20032;-62
2022/06/09 03:39:05;;;;;;;29.52;12.45;;;;;;;17.94;58.37;99384.56;5013225;28;20057;-63
2022/06/09 03:41:30;;;;;;;25.58;11.88;;;;;;;17.99;55.74;99392.19;5012540;28;20030;-63
2022/06/09 03:43:56;;;;;;;24.27;12.10;;;;;;;18.01;55.10;99388.53;5013661;28;20026;-62
2022/06/09 03:46:21;;;;;;;27.50;11.65;;;;;;;18.14;55.50;99388.66;5013340;28;20435;-62
2022/06/09 03:48:47;;;;;;;25.17;12.73;;;;;;;18.21;55.71;99376.06;5013493;28;20022;-62
2022/06/09 03:51:12;;;;;;;21.10;10.63;;;;;;;18.35;54.83;99377.88;5013375;28;20038;-62
2022/06/09 03:53:40;;;;;;;21.67;11.23;;;;;;;18.14;54.67;99349.34;5011479;28;20025;-62
2022/06/09 03:56:12;;;;;;;21.67;11.18;;;;;;;18.52;54.86;99387.38;5013174;28;20034;-62
2022/06/09 03:58:37;;;;;;;;;;;;;;;18.52;54.63;99382.97;5013102;28;20049;-62
2022/06/09 04:01:02;;;;;;;24.85;11.40;;;;;;;18.62;55.87;99391.97;5013008;28;19921;-62
2022/06/09 04:03:30;;;;;;;21.15;11.38;;;;;;;18.62;55.08;99386.72;5012820;28;20399;-62
2022/06/09 04:05:57;;;;;;;21.48;10.90;;;;;;;18.71;53.74;99390.59;5013293;28;20397;-62
2022/06/09 04:08:22;;;;;;;19.50;11.90;;;;;;;18.65;52.85;99390.13;5012865;28;20061;-63
2022/06/09 04:10:49;;;;;;;22.23;10.77;;;;;;;18.78;53.72;99386.66;5012586;28;20058;-63
2022/06/09 04:13:15;;;;;;;20.38;11.18;;;;;;;18.85;54.64;99381.88;5012981;28;20049;-63
2022/06/09 04:15:43;;;;;;;22.23;11.40;;;;;;;18.79;54.06;99366.50;5012925;28;20032;-63
2022/06/09 04:18:10;;;;;;;26.30;12.90;;;;;;;18.92;53.88;99383.22;5012731;28;20026;-63
2022/06/09 04:20:36;;;;;;;19.38;11.00;;;;;;;18.99;54.91;99385.50;5012612;28;20472;-63
2022/06/09 04:23:02;;;;;;;22.63;12.30;;;;;;;18.97;53.60;99385.59;5012571;28;20088;-63
2022/06/09 04:25:28;;;;;;;29.40;11.88;;;;;;;19.06;54.76;99384.16;5013019;28;20033;-63
2022/06/09 04:27:53;;;;;;;23.55;10.88;;;;;;;19.18;54.18;99377.31;5012341;28;20029;-63
2022/06/09 04:30:20;;;;;;;20.33;11.32;;;;;;;19.23;54.46;99381.34;5012991;28;20030;-63
2022/06/09 04:32:45;;;;;;;22.10;11.05;;;;;;;19.29;53.43;99380.94;5012706;28;20026;-63
2022/06/09 04:35:12;;;;;;;25.77;11.50;;;;;;;19.41;54.59;99387.22;5012671;28;20163;-63
2022/06/09 04:40:24;;;;;;;19.35;10.55;;;;;;;19.51;52.87;99386.63;5012493;28;20419;-63
2022/06/09 04:42:51;;;;;;;24.05;11.32;;;;;;;19.59;53.31;99381.75;5011195;28;20148;-62
2022/06/09 04:45:17;;;;;;;23.75;11.95;;;;;;;19.67;52.65;99389.97;5012661;28;20033;-63
2022/06/09 04:47:42;;;;;;;15.77;9.60;;;;;;;19.77;52.94;99384.97;5012439;28;20044;-63
2022/06/09 04:50:10;;;;;;;17.15;9.65;;;;;;;19.62;52.26;99336.88;5012399;28;20026;-63
2022/06/09 04:52:36;;;;;;;17.73;9.43;;;;;;;20.04;51.85;99387.63;5011175;28;20029;-63
2022/06/09 04:55:03;;;;;;;19.17;10.50;;;;;;;20.04;50.34;99379.75;5012481;28;20038;-63
2022/06/09 04:57:29;;;;;;;15.77;9.30;;;;;;;20.30;50.40;99382.44;5011954;28;20550;-63
2022/06/09 04:59:54;;;;;;;20.00;10.30;;;;;;;20.43;51.54;99393.81;5011696;28;20110;-63
2022/06/09 05:02:20;;;;;;;26.63;10.70;;;;;;;20.57;50.94;99390.25;5012317;28;20053;-63
2022/06/09 05:04:46;;;;;;;16.30;9.52;;;;;;;20.60;49.20;99384.75;5012079;28;20072;-63
2022/06/09 05:07:11;;;;;;;18.50;9.10;;;;;;;20.74;49.16;99380.41;5012061;28;20402;-63
2022/06/09 05:09:37;;;;;;;14.18;9.00;;;;;;;20.93;49.50;99382.59;5012234;28;20033;-63
2022/06/09 05:12:04;;;;;;;17.48;8.73;;;;;;;21.07;49.67;99392.16;5012339;28;20022;-63
2022/06/09 05:14:30;;;;;;;16.25;9.18;;;;;;;21.23;48.41;99391.94;5012334;28;20038;-64
2022/06/09 05:16:56;;;;;;;14.75;8.82;;;;;;;21.34;47.91;99394.66;5012464;28;20069;-64
2022/06/09 05:19:22;;;;;;;12.32;7.95;;;;;;;21.41;48.09;99395.91;5011793;28;20509;-61
2022/06/09 05:21:47;;;;;;;11.10;8.13;;;;;;;21.54;47.55;99395.88;5012095;28;20478;-62
2022/06/09 05:24:13;;;;;;;12.07;8.07;;;;;;;21.55;47.62;99393.13;5011964;28;20037;-63
2022/06/09 05:26:38;;;;;;;17.10;7.50;;;;;;;21.71;46.41;99397.31;5012182;28;20072;-62
2022/06/09 05:29:04;;;;;;;8.75;6.35;;;;;;;21.89;47.75;99395.13;5011643;28;20490;-62
2022/06/09 05:31:30;;;;;;;11.82;7.07;;;;;;;21.96;47.59;99395.50;5012069;28;20057;-60
2022/06/09 05:33:55;;;;;;;13.75;7.38;;;;;;;21.87;43.98;99397.84;5012124;28;20029;-61
2022/06/09 05:36:21;;;;;;;11.25;6.43;;;;;;;21.89;44.08;99389.88;5011983;28;20045;-61
2022/06/09 05:46:59;;;;;;;10.57;5.90;;;;;;;22.21;43.39;99391.91;5011733;28;20030;-62
2022/06/09 05:49:25;;;;;;;11.23;5.95;;;;;;;22.17;42.88;99378.09;5011910;28;20029;-62
2022/06/09 05:51:52;;;;;;;14.38;6.05;;;;;;;22.44;42.40;99390.19;5010593;28;20029;-61
2022/06/09 05:54:20;;;;;;;11.48;5.75;;;;;;;22.57;41.50;99384.81;5011828;28;20384;-62
2022/06/09 05:56:46;;;;;;;9.23;6.20;;;;;;;22.57;41.82;99385.69;5011294;28;20467;-62
2022/06/09 05:59:11;;;;;;;24.42;6.78;;;;;;;22.41;41.88;99349.03;5011508;28;20018;-64
2022/06/09 06:01:37;;;;;;;15.90;6.57;;;;;;;22.66;41.85;99380.63;5011506;28;20072;-62
2022/06/09 06:04:05;;;;;;;14.40;6.35;;;;;;;22.52;40.46;99328.91;5012052;28;20399;-62
2022/06/09 06:06:33;;;;;;;33.20;6.90;;;;;;;22.88;41.27;99374.53;5014351;28;20148;-63
2022/06/09 06:09:03;;;;;;;14.48;6.13;;;;;;;22.95;42.03;99365.19;5015196;28;20037;-63
2022/06/09 06:11:29;;;;;;;11.45;5.75;;;;;;;23.06;42.86;99374.91;5015426;28;20073;-63
2022/06/09 06:13:55;;;;;;;11.43;4.90;;;;;;;23.08;40.23;99372.97;5013904;28;20053;-62
2022/06/09 06:16:22;;;;;;;7.38;4.68;;;;;;;23.09;41.35;99374.66;5015197;28;20502;-63
2022/06/09 06:18:48;;;;;;;14.10;6.32;;;;;;;23.15;41.76;99368.91;5015162;28;20389;-63
2022/06/09 06:21:15;;;;;;;10.27;5.45;;;;;;;23.25;40.89;99367.22;5014523;28;20124;-62
2022/06/09 06:23:42;;;;;;;8.65;5.45;;;;;;;23.23;40.42;99349.81;5014366;28;20026;-62
2022/06/09 06:26:08;;;;;;;10.68;5.05;;;;;;;23.32;41.34;99364.94;5014144;28;20029;-62
2022/06/09 06:28:34;;;;;;;6.55;5.05;;;;;;;23.38;39.38;99364.44;5008670;28;20109;-62
2022/06/09 06:30:59;;;;;;;9.20;4.45;;;;;;;23.34;36.98;99363.00;5015056;28;20574;-61
2022/06/09 06:33:25;;;;;;;6.28;4.60;;;;;;;23.42;37.37;99372.97;5015107;28;20026;-62
2022/06/09 06:35:50;;;;;;;12.00;4.68;;;;;;;23.50;36.99;99367.06;5014349;28;20022;-62
2022/06/09 06:38:16;;;;;;;8.73;4.22;;;;;;;23.58;39.84;99365.47;5014195;28;20026;-62
2022/06/09 06:40:42;;;;;;;9.32;4.15;;;;;;;23.64;39.04;99368.59;5010304;28;20399;-62
2022/06/09 06:43:08;;;;;;;7.38;3.97;;;;;;;23.67;36.38;99368.34;5011113;28;20028;-62
2022/06/09 06:45:33;;;;;;;5.35;3.75;;;;;;;23.71;36.76;99373.25;5013816;28;20013;-62
2022/06/09 06:47:59;;;;;;;9.70;3.90;;;;;;;23.71;35.68;99364.47;5011339;28;20475;-63
2022/06/09 06:50:25;;;;;;;4.22;3.15;;;;;;;23.86;36.16;99371.16;5011369;28;20053;-64
2022/06/09 06:52:51;;;;;;;5.10;3.03;;;;;;;23.94;35.31;99370.56;5014285;28;20518;-63
2022/06/09 06:55:19;;;;;;;5.53;2.08;;;;;;;23.84;33.56;99364.31;5014533;28;20036;-63
2022/06/09 06:57:45;;;;;;;4.68;2.00;;;;;;;23.99;34.22;99368.38;5014072;28;20018;-63
2022/06/09 07:00:15;;;;;;;10.30;2.90;;;;;;;23.80;33.09;99329.38;5013136;28;20461;-63
2022/06/09 07:02:41;;;;;;;6.35;3.10;;;;;;;23.94;32.29;99370.56;5014686;28;20091;-63
2022/06/09 07:05:08;;;;;;;6.00;3.55;;;;;;;23.94;31.40;99366.13;5012902;28;20057;-63
2022/06/09 07:07:35;;;;;;;5.45;3.35;;;;;;;24.21;33.20;99366.59;5011831;28;20056;-63
2022/06/09 07:10:01;;;;;;;8.93;3.42;;;;;;;24.27;32.26;99356.34;5012329;28;20126;-62
2022/06/09 07:12:28;;;;;;;5.38;3.08;;;;;;;24.41;32.23;99363.13;5013858;28;20029;-63
2022/06/09 07:14:53;;;;;;;12.40;4.43;;;;;;;24.59;33.06;99360.69;5012734;28;20406;-65
2022/06/09 07:17:19;;;;;;;7.20;3.70;;;;;;;24.73;32.75;99346.31;5012830;28;20800;-62
2022/06/09 07:19:44;;;;;;;8.45;3.88;;;;;;;24.87;33.84;99353.06;5013942;28;20030;-63
2022/06/09 07:22:10;;;;;;;7.90;3.55;;;;;;;24.98;34.31;99355.63;5013047;28;20463;-64
2022/06/09 07:24:36;;;;;;;5.18;3.67;;;;;;;25.03;33.91;99354.41;5013600;28;20487;-64
2022/06/09 07:27:01;;;;;;;8.55;3.85;;;;;;;24.95;34.40;99349.75;5020855;28;20037;-64
2022/06/09 07:29:27;;;;;;;8.98;3.92;;;;;;;25.03;32.99;99349.91;5013400;28;20022;-64
2022/06/09 07:31:53;;;;;;;7.82;3.38;;;;;;;25.07;32.84;99348.69;5013993;28;20443;-64
2022/06/09 07:34:19;;;;;;;8.70;3.00;;;;;;;25.11;32.00;99341.28;5013938;28;20467;-63
2022/06/09 07:36:46;;;;;;;10.05;2.92;;;;;;;25.15;33.76;99345.34;5013886;28;20029;-63
2022/06/09 07:39:11;;;;;;;5.47;2.50;;;;;;;25.18;31.34;99345.06;5013467;28;20045;-63
2022/06/09 07:41:37;;;;;;;8.23;3.30;;;;;;;25.14;30.69;99351.66;5013544;28;20029;-62
2022/06/09 07:44:05;;;;;;;5.82;2.42;;;;;;;25.07;29.92;99350.47;5014087;28;20065;-62
2022/06/09 07:46:31;;;;;;;5.68;2.58;;;;;;;25.13;31.29;99357.91;5013392;28;20030;-62
2022/06/09 07:48:58;;;;;;;5.47;2.90;;;;;;;25.25;33.52;99348.03;5013460;28;20037;-63
2022/06/09 07:51:24;;;;;;;4.85;2.42;;;;;;;25.25;31.69;99346.19;5013662;28;20033;-62
2022/06/09 07:53:50;;;;;;;5.35;2.22;;;;;;;25.26;31.25;99341.75;5013400;28;20030;-62
2022/06/09 07:56:16;;;;;;;5.47;2.53;;;;;;;25.30;32.26;99354.59;5013568;28;20030;-62
2022/06/09 07:58:42;;;;;;;6.57;3.03;;;;;;;25.37;32.25;99354.06;5013156;28;20037;-63
2022/06/09 08:01:08;;;;;;;5.10;2.78;;;;;;;25.33;31.08;99353.53;5013827;28;20022;-63
2022/06/09 08:03:33;;;;;;;7.15;2.90;;;;;;;25.38;32.12;99353.13;5013365;28;20475;-63
2022/06/09 08:05:59;;;;;;;5.93;2.58;;;;;;;25.45;33.25;99352.44;5012961;28;20499;-62
2022/06/09 08:08:24;;;;;;;9.07;3.67;;;;;;;25.41;31.75;99348.38;5013241;28;20467;-63
2022/06/09 08:10:50;;;;;;;4.93;3.03;;;;;;;25.25;29.22;99340.91;5012913;28;20041;-63
2022/06/09 08:13:16;;;;;;;3.65;2.75;;;;;;;25.50;30.72;99338.78;5011883;28;20029;-64
2022/06/09 08:15:44;;;;;;;5.90;3.20;;;;;;;25.35;31.53;99303.84;5013136;28;20121;-64
2022/06/09 08:18:10;;;;;;;6.50;2.90;;;;;;;25.64;30.22;99346.31;5012824;28;20057;-63
2022/06/09 08:20:38;;;;;;;5.40;3.20;;;;;;;25.65;29.68;99337.41;5012275;28;20135;-64
2022/06/09 08:23:08;;;;;;;9.00;3.35;;;;;;;25.49;31.45;99307.91;5012370;28;20391;-64
2022/06/09 08:25:34;;;;;;;6.90;3.00;;;;;;;25.80;30.36;99355.56;5010808;28;20492;-64
2022/06/09 08:28:00;;;;;;;7.32;3.25;;;;;;;25.87;30.76;99350.50;5009206;28;20038;-64
2022/06/09 08:30:26;;;;;;;5.10;2.80;;;;;;;25.99;31.54;99350.22;5012973;28;20034;-64
2022/06/09 08:32:51;;;;;;;6.60;3.45;;;;;;;26.00;31.52;99351.94;5012122;28;20478;-63
2022/06/09 08:35:18;;;;;;;5.10;3.20;;;;;;;25.97;31.41;99338.91;5011994;28;20018;-63
2022/06/09 08:37:50;;;;;;;5.60;2.67;;;;;;;26.04;30.21;99352.50;5012226;28;20546;-65
2022/06/09 08:40:40;;;;;;;5.65;2.83;;;;;;;25.76;30.03;99309.06;5012648;28;20033;-61
2022/06/09 08:43:29;;;;;;;6.63;3.53;;;;;;;26.07;31.38;99343.44;5003372;28;20125;-65
2022/06/09 08:45:57;;;;;;;13.13;3.00;;;;;;;25.91;29.92;99310.31;5011161;28;20101;-66
2022/06/09 08:48:25;;;;;;;7.95;3.58;;;;;;;26.16;31.84;99345.22;5012474;28;20061;-67
2022/06/09 08:51:06;;;;;;;7.00;3.00;;;;;;;26.19;30.97;99344.94;5012500;28;20030;-67
2022/06/09 08:53:38;;;;;;;5.55;3.20;;;;;;;26.26;31.58;99340.72;5010194;28;20061;-66
2022/06/09 08:56:12;;;;;;;4.82;3.00;;;;;;;26.16;31.12;99314.19;5007508;28;20038;-67
2022/06/09 08:58:53;;;;;;;6.30;3.17;;;;;;;26.37;30.73;99336.25;5011063;28;20084;-67
2022/06/09 09:01:39;;;;;;;8.77;3.50;;;;;;;26.44;30.51;99347.97;5012525;28;20065;-67
2022/06/09 09:04:21;;;;;;;7.45;3.15;;;;;;;26.54;31.30;99343.47;5012311;28;20542;-66
2022/06/09 09:06:53;;;;;;;9.27;3.70;;;;;;;26.57;32.41;99337.03;5012491;28;20033;-65
2022/06/09 09:09:31;;;;;;;9.70;3.53;;;;;;;26.62;32.81;99329.47;5012107;28;20402;-65
2022/06/09 09:12:12;;;;;;;7.65;3.55;;;;;;;26.55;30.80;99342.50;5011702;28;20030;-65
2022/06/09 09:14:54;;;;;;;7.53;3.60;;;;;;;26.67;30.57;99335.19;5007054;28;20041;-65
2022/06/09 09:17:37;;;;;;;8.35;4.47;;;;;;;26.69;31.12;99336.75;5012296;28;20061;-64
2022/06/09 09:20:26;;;;;;;12.70;3.83;;;;;;;26.78;32.98;99328.88;5011050;28;20037;-64
2022/06/09 09:23:03;;;;;;;7.70;3.60;;;;;;;26.86;31.42;99332.50;5011840;28;20530;-67
2022/06/09 09:25:43;;;;;;;10.65;3.80;;;;;;;26.62;31.48;99290.47;5012148;28;20025;-66
2022/06/09 09:28:28;;;;;;;6.63;3.33;;;;;;;26.57;30.17;99281.25;5012194;28;20030;-69
2022/06/09 09:31:15;;;;;;;8.95;3.60;;;;;;;26.92;31.62;99315.13;5012146;28;20033;-69
2022/06/09 09:33:41;;;;;;;5.80;3.22;;;;;;;26.99;31.67;99316.19;5009479;28;20387;-68
2022/06/09 09:36:23;;;;;;;11.77;3.83;;;;;;;27.05;31.46;99309.47;5010660;28;20064;-67
2022/06/09 09:39:16;;;;;;;9.02;3.25;;;;;;;27.00;31.12;99315.19;5010355;28;20030;-67
2022/06/09 09:41:42;;;;;;;5.30;2.80;;;;;;;26.87;30.81;99317.38;5014533;28;20030;-67
2022/06/09 09:44:20;;;;;;;7.88;2.33;;;;;;;26.74;30.42;99269.88;5015086;28;20109;-68
2022/06/09 09:47:00;;;;;;;3.55;2.45;;;;;;;27.02;30.34;99313.25;5006476;28;20484;-70
2022/06/09 09:49:34;;;;;;;6.88;2.72;;;;;;;27.04;31.05;99313.91;5015101;28;20041;-70
2022/06/09 09:52:01;;;;;;;9.18;3.00;;;;;;;26.95;30.92;99313.97;5008609;28;20034;-67
2022/06/09 09:54:29;;;;;;;5.55;3.05;;;;;;;26.90;32.07;99271.88;5012654;28;20033;-67
2022/06/09 09:57:18;;;;;;;5.55;3.30;;;;;;;27.13;30.98;99306.03;5015425;28;20044;-69
2022/06/09 09:59:53;;;;;;;5.40;2.60;;;;;;;27.00;30.53;99301.06;5014887;28;20021;-69
2022/06/09 10:08:40;;;;;;;3.80;2.40;;;;;;;26.86;30.49;99300.59;5009764;28;20125;-67
2022/06/09 10:14:25;;;;;;;5.90;2.75;;;;;;;26.60;31.23;99257.88;5006148;28;20038;-67
2022/06/09 10:16:52;;;;;;;6.13;3.28;;;;;;;27.02;31.78;99299.09;5015523;28;20033;-66
2022/06/09 10:19:24;;;;;;;2.83;2.35;;;;;;;26.84;31.46;99256.53;5015001;28;20025;-66
2022/06/09 10:21:56;;;;;;;6.82;3.60;;;;;;;26.81;32.52;99255.00;5014776;28;20052;-65
2022/06/09 10:24:42;;;;;;;5.75;3.08;;;;;;;26.70;30.73;99253.38;5013315;28;20028;-65
2022/06/09 10:27:12;;;;;;;4.75;2.97;;;;;;;26.93;32.16;99274.25;5014710;28;20108;-66
2022/06/09 10:30:10;;;;;;;4.43;2.92;;;;;;;27.18;32.39;99287.81;5018690;28;20029;-67
2022/06/09 10:32:57;;;;;;;4.10;2.50;;;;;;;27.01;31.62;99286.81;5009336;28;20052;-66
2022/06/09 10:35:54;;;;;;;5.82;2.50;;;;;;;27.02;31.71;99283.16;5012017;28;20079;-65
2022/06/09 10:38:31;;;;;;;4.20;2.95;;;;;;;27.00;31.55;99285.94;5008199;28;20117;-66
2022/06/09 10:40:59;;;;;;;6.88;3.15;;;;;;;27.10;32.89;99279.75;5010696;28;20101;-66
2022/06/09 10:43:38;;;;;;;5.28;3.35;;;;;;;27.16;31.27;99284.47;5013013;28;20072;-65
2022/06/09 10:46:09;;;;;;;6.43;3.05;;;;;;;27.10;31.38;99287.72;5013051;28;20029;-65
2022/06/09 10:55:15;;;;;;;3.97;2.95;;;;;;;26.91;32.42;99270.91;4970406;28;20060;-64
2022/06/09 10:57:55;;;;;;;5.95;2.47;;;;;;;27.04;32.24;99271.38;5012321;28;20061;-64
2022/06/09 11:00:36;;;;;;;4.47;3.15;;;;;;;26.91;33.22;99233.69;5014031;28;20033;-65
2022/06/09 11:03:11;;;;;;;7.53;2.83;;;;;;;27.14;33.71;99270.50;5013448;28;20491;-65
2022/06/09 11:05:59;;;;;;;6.82;2.90;;;;;;;26.97;31.87;99264.16;5011112;28;20038;-66
2022/06/09 11:08:50;;;;;;;4.30;3.00;;;;;;;26.88;32.82;99263.25;5007228;28;20042;-66
2022/06/09 11:11:27;;;;;;;4.00;2.85;;;;;;;27.08;33.55;99269.28;5009642;28;20041;-66
2022/06/09 11:14:19;;;;;;;5.75;3.60;;;;;;;27.14;33.26;99271.31;5011174;28;20022;-65
2022/06/09 11:17:23;;;;;;;3.85;2.90;;;;;;;26.97;33.73;99218.97;5011070;28;20025;-65
2022/06/09 11:20:19;;;;;;;6.00;3.17;;;;;;;27.18;32.74;99262.06;5010535;28;20033;-65
2022/06/09 11:23:16;;;;;;;5.30;3.30;;;;;;;27.21;31.44;99252.94;5012300;28;20057;-65
2022/06/09 11:25:50;;;;;;;9.50;3.08;;;;;;;27.21;32.69;99258.28;5011475;28;20077;-65
2022/06/09 11:28:34;;;;;;;5.00;3.13;;;;;;;26.85;31.13;99255.53;5010948;28;20046;-65
2022/06/09 11:31:23;;;;;;;3.53;3.22;;;;;;;27.00;31.40;99261.19;5012201;28;20049;-63
2022/06/09 11:34:32;;;;;;;4.95;2.90;;;;;;;27.05;31.62;99266.91;5010703;28;20053;-63
2022/06/09 11:37:22;;;;;;;4.88;3.17;;;;;;;27.21;32.78;99260.94;5013770;28;20045;-63
2022/06/09 11:40:19;;;;;;;5.18;3.00;;;;;;;27.31;33.57;99261.69;5013918;28;20430;-65
2022/06/09 11:42:54;;;;;;;3.67;3.17;;;;;;;27.29;33.07;99250.38;5014385;28;20045;-64
2022/06/09 11:45:36;;;;;;;6.88;3.05;;;;;;;27.34;32.98;99249.91;5014033;28;20018;-65
2022/06/09 11:48:07;;;;;;;4.63;2.83;;;;;;;27.43;32.50;99250.84;5005555;28;20611;-65
2022/06/09 11:50:39;;;;;;;7.47;3.10;;;;;;;27.38;31.47;99254.81;5013925;28;20037;-64
2022/06/09 11:53:06;;;;;;;6.05;3.00;;;;;;;27.31;31.72;99251.06;5023581;28;20554;-66
2022/06/09 11:55:58;;;;;;;6.38;3.15;;;;;;;27.18;32.51;99230.16;4999718;28;20029;-66
2022/06/09 11:58:36;;;;;;;5.32;2.90;;;;;;;27.42;32.66;99251.84;5013935;28;20048;-66
2022/06/09 12:01:16;;;;;;;4.82;2.70;;;;;;;27.46;32.46;99242.56;5012369;28;20328;-68
2022/06/09 12:04:05;;;;;;;5.53;3.03;;;;;;;27.48;32.41;99245.94;5013666;28;20045;-66
2022/06/09 12:06:55;;;;;;;4.18;2.60;;;;;;;27.49;31.31;99242.25;5005193;28;20128;-66
2022/06/09 12:09:57;;;;;;;5.50;2.95;;;;;;;27.49;31.10;99235.13;5012077;28;20041;-66
2022/06/09 12:12:36;;;;;;;9.18;3.10;;;;;;;27.29;32.14;99191.03;5023219;28;20030;-66
2022/06/09 12:15:23;;;;;;;6.35;2.90;;;;;;;27.61;33.69;99241.03;5025116;28;20035;-67